Time;durP1;ratioP1;P1;durP2;ratioP2;P2;SDS_P1;SDS_P2;PMS_P1;PMS_P2;Temp;Humidity;BMP_temperature;BMP_pressure;BME280_temperature;BME280_humidity;BME280_pressure;Samples;Min_cycle;Max_cycle;Signal;HPM_P1;HPM_P2
2023/11/30 00:00:11;;;;;;;14.43;8.65;;;;;;;2.34;100.00;100175.84;4829679;29;20111;-67
2023/11/30 00:02:59;;;;;;;14.27;9.20;;;;;;;2.35;100.00;100169.41;4830611;29;20393;-67
2023/11/30 00:05:47;;;;;;;15.30;9.60;;;;;;;2.32;100.00;100168.00;4813326;29;20110;-67
2023/11/30 00:08:35;;;;;;;15.45;9.80;;;;;;;2.30;100.00;100162.03;4823705;29;20073;-67
2023/11/30 00:11:23;;;;;;;15.05;9.38;;;;;;;2.29;100.00;100156.91;4828443;29;20042;-68
2023/11/30 00:14:11;;;;;;;13.07;9.48;;;;;;;2.27;100.00;100165.19;4840089;29;20054;-67
2023/11/30 00:16:59;;;;;;;13.77;9.43;;;;;;;2.23;100.00;100153.25;4840961;29;20525;-67
2023/11/30 00:19:47;;;;;;;14.50;9.23;;;;;;;2.19;100.00;100156.63;4843670;29;20498;-67
2023/11/30 00:22:35;;;;;;;14.15;8.95;;;;;;;2.11;100.00;100158.59;4843017;29;20076;-67
2023/11/30 00:25:23;;;;;;;14.43;9.13;;;;;;;2.00;100.00;100154.00;4824683;29;20134;-69
2023/11/30 00:28:11;;;;;;;12.70;8.85;;;;;;;1.93;100.00;100150.59;4832062;29;20613;-66
2023/11/30 00:30:59;;;;;;;13.45;9.40;;;;;;;1.93;100.00;100142.53;4842956;29;20050;-67
2023/11/30 00:33:47;;;;;;;13.68;9.05;;;;;;;1.95;100.00;100143.13;4818598;29;20511;-69
2023/11/30 00:36:36;;;;;;;13.45;8.63;;;;;;;2.01;100.00;100131.47;4827918;29;20431;-67
2023/11/30 00:39:23;;;;;;;14.40;9.73;;;;;;;2.05;100.00;100132.66;4831445;29;20383;-68
2023/11/30 00:42:12;;;;;;;14.70;9.23;;;;;;;2.05;100.00;100132.66;4829031;29;20077;-68
2023/11/30 00:45:00;;;;;;;14.60;9.00;;;;;;;2.04;100.00;100139.06;4831359;29;20094;-67
2023/11/30 00:47:48;;;;;;;14.48;8.57;;;;;;;2.06;100.00;100136.97;4827397;29;20050;-68
2023/11/30 00:50:36;;;;;;;11.90;8.85;;;;;;;2.11;100.00;100131.72;4811680;29;20073;-67
2023/11/30 00:53:24;;;;;;;14.98;9.35;;;;;;;2.16;100.00;100135.59;4808888;29;20396;-69
2023/11/30 00:56:12;;;;;;;13.90;8.98;;;;;;;2.17;100.00;100138.06;4815469;29;20050;-68
2023/11/30 00:59:00;;;;;;;13.60;9.02;;;;;;;2.16;100.00;100128.34;4825206;29;20050;-67
2023/11/30 01:01:48;;;;;;;13.77;8.95;;;;;;;2.03;100.00;100124.00;4825819;29;20089;-68
2023/11/30 01:04:37;;;;;;;13.13;9.10;;;;;;;1.89;100.00;100122.53;4840970;29;20133;-66
2023/11/30 01:07:25;;;;;;;12.63;8.82;;;;;;;1.80;100.00;100126.59;4817777;29;20124;-68
2023/11/30 01:10:13;;;;;;;13.68;9.20;;;;;;;1.79;100.00;100116.91;4829732;29;20053;-67
2023/11/30 01:13:01;;;;;;;12.15;8.50;;;;;;;1.81;100.00;100121.00;4840342;29;20129;-69
2023/11/30 01:15:49;;;;;;;13.13;9.35;;;;;;;1.86;100.00;100123.81;4834329;29;20179;-67
2023/11/30 01:18:37;;;;;;;12.23;9.00;;;;;;;1.91;100.00;100123.13;4824215;29;20528;-68
2023/11/30 01:21:25;;;;;;;15.20;9.27;;;;;;;1.91;100.00;100129.31;4825551;29;20050;-67
2023/11/30 01:24:13;;;;;;;15.65;9.65;;;;;;;1.85;100.00;100119.50;4841090;29;20046;-67
2023/11/30 01:27:02;;;;;;;12.95;9.43;;;;;;;1.78;100.00;100121.47;4840899;29;20140;-68
2023/11/30 01:29:50;;;;;;;13.68;8.88;;;;;;;1.82;100.00;100124.50;4841688;29;20133;-68
2023/11/30 01:32:38;;;;;;;13.70;8.63;;;;;;;1.83;100.00;100124.28;4825186;29;20525;-68
2023/11/30 01:35:28;;;;;;;12.20;8.73;;;;;;;1.82;100.00;100128.00;4836620;29;20050;-68
2023/11/30 01:38:17;;;;;;;15.20;9.18;;;;;;;1.84;100.00;100130.47;4841018;29;20049;-67
2023/11/30 01:41:05;;;;;;;14.05;8.85;;;;;;;1.82;100.00;100127.19;4841049;29;20550;-67
2023/11/30 01:43:53;;;;;;;12.70;8.98;;;;;;;1.83;100.00;100128.84;4834197;29;20066;-68
2023/11/30 01:46:41;;;;;;;13.07;9.02;;;;;;;1.82;100.00;100117.25;4823096;29;20050;-67
2023/11/30 01:49:29;;;;;;;14.95;8.68;;;;;;;1.83;100.00;100120.78;4822197;29;20521;-68
2023/11/30 01:52:18;;;;;;;12.15;8.35;;;;;;;1.87;100.00;100114.69;4823517;29;20050;-68
2023/11/30 01:55:06;;;;;;;13.65;9.48;;;;;;;1.86;100.00;100113.06;4833539;29;20097;-68
2023/11/30 01:57:55;;;;;;;11.50;8.13;;;;;;;1.85;100.00;100111.44;4821242;29;20118;-67
2023/11/30 02:00:43;;;;;;;15.05;8.65;;;;;;;1.85;100.00;100115.97;4797884;29;20077;-67
2023/11/30 02:03:32;;;;;;;13.05;8.88;;;;;;;1.84;100.00;100099.03;4816956;29;20052;-68
2023/11/30 02:06:20;;;;;;;12.55;9.27;;;;;;;1.83;100.00;100101.97;4808937;29;20066;-68
2023/11/30 02:09:08;;;;;;;13.30;9.13;;;;;;;1.80;100.00;100107.78;4822632;29;20434;-67
2023/11/30 02:11:56;;;;;;;13.68;8.25;;;;;;;1.79;100.00;100101.59;4823241;29;20055;-67
2023/11/30 02:14:44;;;;;;;12.93;8.73;;;;;;;1.82;100.00;100103.00;4831936;29;20070;-67
2023/11/30 02:17:32;;;;;;;12.88;8.70;;;;;;;1.82;100.00;100101.13;4822651;29;20058;-67
2023/11/30 02:20:20;;;;;;;13.13;9.30;;;;;;;1.78;100.00;100105.34;4829103;29;20057;-68
2023/11/30 02:23:08;;;;;;;11.82;8.90;;;;;;;1.75;100.00;100094.22;4829204;29;20101;-67
2023/11/30 02:25:56;;;;;;;12.63;8.75;;;;;;;1.65;100.00;100087.53;4835604;29;20046;-67
2023/11/30 02:28:45;;;;;;;12.35;8.43;;;;;;;1.60;100.00;100089.25;4821415;29;20424;-67
2023/11/30 02:31:34;;;;;;;14.93;8.32;;;;;;;1.62;100.00;100085.31;4823545;29;20054;-67
2023/11/30 02:34:22;;;;;;;13.00;8.60;;;;;;;1.66;100.00;100085.66;4830733;29;20191;-69
2023/11/30 02:37:10;;;;;;;13.13;8.68;;;;;;;1.66;100.00;100083.81;4808925;29;20054;-68
2023/11/30 02:39:58;;;;;;;12.63;8.48;;;;;;;1.67;100.00;100092.69;4822318;29;20079;-67
2023/11/30 02:42:46;;;;;;;13.50;8.77;;;;;;;1.65;100.00;100084.84;4823093;29;20056;-67
2023/11/30 02:45:34;;;;;;;13.63;9.45;;;;;;;1.60;100.00;100084.72;4807084;29;20137;-67
2023/11/30 02:48:22;;;;;;;14.55;9.23;;;;;;;1.57;100.00;100076.31;4810414;29;20510;-67
2023/11/30 02:51:11;;;;;;;12.10;8.93;;;;;;;1.54;100.00;100077.59;4822537;29;20441;-68
2023/11/30 02:53:59;;;;;;;15.85;8.77;;;;;;;1.54;100.00;100072.22;4838214;29;20144;-67
2023/11/30 02:56:47;;;;;;;13.05;8.93;;;;;;;1.58;100.00;100076.06;4836378;29;20069;-66
2023/11/30 02:59:35;;;;;;;13.00;8.30;;;;;;;1.63;100.00;100076.19;4843750;29;20057;-69
2023/11/30 03:02:23;;;;;;;11.90;8.55;;;;;;;1.67;100.00;100077.38;4834370;29;20525;-67
2023/11/30 03:05:14;;;;;;;13.18;8.55;;;;;;;1.67;100.00;100076.56;4826982;29;20060;-67
2023/11/30 03:08:03;;;;;;;13.02;9.13;;;;;;;1.68;100.00;100072.81;4842442;29;20049;-67
2023/11/30 03:10:51;;;;;;;12.57;9.15;;;;;;;1.68;100.00;100062.94;4843158;29;20077;-67
2023/11/30 03:13:40;;;;;;;13.80;8.85;;;;;;;1.64;100.00;100072.47;4830816;29;20060;-67
2023/11/30 03:16:28;;;;;;;13.05;9.05;;;;;;;1.65;100.00;100073.28;4823655;29;20066;-68
2023/11/30 03:19:16;;;;;;;11.90;8.15;;;;;;;1.61;100.00;100067.56;4825103;29;20555;-68
2023/11/30 03:22:04;;;;;;;13.07;8.80;;;;;;;1.57;100.00;100062.88;4824742;29;20061;-66
2023/11/30 03:24:52;;;;;;;11.32;8.35;;;;;;;1.54;100.00;100072.22;4824378;29;20073;-69
2023/11/30 03:27:41;;;;;;;13.85;9.20;;;;;;;1.49;100.00;100077.41;4827290;29;20515;-67
2023/11/30 03:30:30;;;;;;;12.43;8.95;;;;;;;1.52;100.00;100073.50;4812697;29;20077;-67
2023/11/30 03:33:18;;;;;;;13.02;8.85;;;;;;;1.59;100.00;100074.19;4826239;29;20062;-67
2023/11/30 03:36:06;;;;;;;13.70;8.45;;;;;;;1.61;100.00;100075.63;4826141;29;20054;-68
2023/11/30 03:38:55;;;;;;;12.13;8.43;;;;;;;1.62;100.00;100069.19;4826129;29;20065;-67
2023/11/30 03:41:44;;;;;;;12.18;8.50;;;;;;;1.65;100.00;100063.38;4825481;29;20138;-67
2023/11/30 03:44:32;;;;;;;12.50;8.45;;;;;;;1.68;100.00;100079.03;4827191;29;20059;-68
2023/11/30 03:47:20;;;;;;;12.43;8.95;;;;;;;1.67;100.00;100077.38;4830548;29;20137;-67
2023/11/30 03:50:08;;;;;;;14.93;8.63;;;;;;;1.69;100.00;100066.44;4843710;29;20064;-66
2023/11/30 03:52:57;;;;;;;13.80;8.95;;;;;;;1.70;100.00;100060.81;4842773;29;20065;-67
2023/11/30 03:55:45;;;;;;;13.02;8.90;;;;;;;1.67;100.00;100055.09;4829685;29;20046;-68
2023/11/30 03:58:33;;;;;;;12.18;8.45;;;;;;;1.65;100.00;100058.00;4812736;29;20046;-67
2023/11/30 04:01:22;;;;;;;12.82;8.80;;;;;;;1.69;100.00;100044.94;4824938;29;20180;-67
2023/11/30 04:04:10;;;;;;;14.10;9.07;;;;;;;1.68;100.00;100045.97;4800641;29;20054;-67
2023/11/30 04:06:59;;;;;;;13.57;9.30;;;;;;;1.65;100.00;100041.06;4839623;29;20102;-66
2023/11/30 04:09:47;;;;;;;13.52;9.07;;;;;;;1.61;100.00;100046.09;4847815;29;20191;-63
2023/11/30 04:12:35;;;;;;;13.93;9.00;;;;;;;1.54;100.00;100048.06;4852470;29;20426;-67
2023/11/30 04:15:23;;;;;;;13.23;9.45;;;;;;;1.49;100.00;100050.56;4840607;29;20053;-66
2023/11/30 04:18:12;;;;;;;13.43;9.38;;;;;;;1.48;100.00;100054.31;4849488;29;20050;-65
2023/11/30 04:21:01;;;;;;;14.60;9.30;;;;;;;1.47;100.00;100053.50;4862643;29;20041;-65
2023/11/30 04:23:49;;;;;;;15.05;9.43;;;;;;;1.44;100.00;100047.75;4859953;29;20148;-67
2023/11/30 04:26:37;;;;;;;13.88;9.07;;;;;;;1.41;100.00;100056.25;4837820;29;20046;-67
2023/11/30 04:29:25;;;;;;;13.85;8.90;;;;;;;1.46;100.00;100053.72;4826398;29;20050;-65
2023/11/30 04:32:13;;;;;;;14.68;9.85;;;;;;;1.54;100.00;100049.88;4824149;29;20127;-68
2023/11/30 04:35:01;;;;;;;12.98;9.32;;;;;;;1.57;100.00;100047.59;4832189;29;20050;-68
2023/11/30 04:37:49;;;;;;;14.50;8.82;;;;;;;1.58;100.00;100046.53;4841044;29;20132;-68
2023/11/30 04:40:37;;;;;;;13.77;9.38;;;;;;;1.54;100.00;100050.72;4844030;29;20057;-68
2023/11/30 04:43:25;;;;;;;13.18;9.25;;;;;;;1.53;100.00;100054.44;4843336;29;20061;-69
2023/11/30 04:46:14;;;;;;;12.55;9.02;;;;;;;1.52;100.00;100047.44;4804355;29;20053;-66
2023/11/30 04:49:03;;;;;;;14.93;9.77;;;;;;;1.56;100.00;100061.22;4825319;29;20127;-68
2023/11/30 04:51:52;;;;;;;15.05;10.32;;;;;;;1.58;100.00;100054.56;4824350;29;20150;-67
2023/11/30 04:54:40;;;;;;;14.98;9.88;;;;;;;1.63;100.00;100049.34;4812542;29;20047;-67
2023/11/30 04:57:28;;;;;;;15.98;9.80;;;;;;;1.66;100.00;100043.53;4828992;29;20053;-68
2023/11/30 05:00:16;;;;;;;13.05;8.85;;;;;;;1.65;100.00;100041.88;4831317;29;20616;-67
2023/11/30 05:03:04;;;;;;;13.68;9.80;;;;;;;1.65;100.00;100041.88;4849343;29;20069;-67
2023/11/30 05:05:52;;;;;;;13.20;9.15;;;;;;;1.65;100.00;100031.16;4831453;29;20061;-69
2023/11/30 05:08:40;;;;;;;13.30;9.18;;;;;;;1.62;100.00;100036.97;4844619;29;20069;-67
2023/11/30 05:11:28;;;;;;;16.65;9.88;;;;;;;1.56;100.00;100035.19;4843973;29;20050;-67
2023/11/30 05:14:16;;;;;;;14.75;9.50;;;;;;;1.49;100.00;100039.84;4842226;29;20101;-67
2023/11/30 05:17:04;;;;;;;14.30;9.88;;;;;;;1.42;100.00;100033.72;4827939;29;20079;-68
2023/11/30 05:19:53;;;;;;;15.15;9.70;;;;;;;1.33;100.00;100035.94;4824045;29;20042;-68
2023/11/30 05:22:41;;;;;;;14.50;9.38;;;;;;;1.25;100.00;100034.38;4823754;29;20077;-67
2023/11/30 05:25:29;;;;;;;16.17;9.88;;;;;;;1.24;100.00;100035.41;4833866;29;20195;-67
2023/11/30 05:28:17;;;;;;;16.17;10.68;;;;;;;1.24;100.00;100027.38;4841868;29;20049;-66
2023/11/30 05:31:05;;;;;;;18.52;9.98;;;;;;;1.21;100.00;100024.31;4822943;29;20042;-67
2023/11/30 05:33:53;;;;;;;14.15;10.10;;;;;;;1.23;100.00;100032.97;4826781;29;20056;-67
2023/11/30 05:36:43;;;;;;;14.13;10.13;;;;;;;1.31;100.00;100031.84;4840296;29;20046;-67
2023/11/30 05:39:31;;;;;;;15.90;10.45;;;;;;;1.38;100.00;100036.06;4839497;29;20046;-68
2023/11/30 05:42:19;;;;;;;17.45;10.48;;;;;;;1.42;100.00;100031.06;4841566;29;20058;-67
2023/11/30 05:45:07;;;;;;;14.75;10.55;;;;;;;1.46;100.00;100038.44;4831764;29;20142;-67
2023/11/30 05:47:55;;;;;;;15.50;10.98;;;;;;;1.40;100.00;100033.97;4823555;29;20060;-67
2023/11/30 05:50:43;;;;;;;16.55;11.45;;;;;;;1.29;100.00;100026.69;4830621;29;20412;-68
2023/11/30 05:53:31;;;;;;;15.98;11.18;;;;;;;1.18;100.00;100025.59;4840190;29;20133;-67
2023/11/30 05:56:21;;;;;;;17.23;10.90;;;;;;;1.13;100.00;100028.16;4825753;29;20054;-67
2023/11/30 05:59:09;;;;;;;14.25;10.50;;;;;;;1.16;100.00;100026.88;4823281;29;20115;-66
2023/11/30 06:01:57;;;;;;;15.18;10.73;;;;;;;1.17;100.00;100026.63;4834129;29;20050;-68
2023/11/30 06:04:52;;;;;;;17.70;11.77;;;;;;;1.15;100.00;100036.75;4837160;29;20050;-67
2023/11/30 06:07:44;;;;;;;15.02;11.13;;;;;;;1.14;100.00;100037.81;4810854;29;20412;-68
2023/11/30 06:10:32;;;;;;;17.25;12.25;;;;;;;1.17;100.00;100037.34;4820658;29;20046;-68
2023/11/30 06:13:24;;;;;;;17.83;12.60;;;;;;;1.16;100.00;100046.47;4839366;29;20141;-68
2023/11/30 06:16:12;;;;;;;16.25;10.80;;;;;;;1.26;100.00;100041.38;4815261;29;20050;-68
2023/11/30 06:19:01;;;;;;;17.13;11.63;;;;;;;1.32;100.00;100052.25;4845153;29;20456;-65
2023/11/30 06:21:50;;;;;;;19.25;12.73;;;;;;;1.32;100.00;100052.25;4837430;29;20070;-66
2023/11/30 06:24:38;;;;;;;15.95;11.68;;;;;;;1.30;100.00;100048.97;4823075;29;20043;-66
2023/11/30 06:27:25;;;;;;;20.00;12.13;;;;;;;1.25;100.00;100047.81;4153875;29;9999934;-67
2023/11/30 06:30:14;;;;;;;15.02;11.55;;;;;;;1.26;100.00;100060.16;4823076;29;20051;-68
2023/11/30 06:33:02;;;;;;;17.30;12.63;;;;;;;1.21;100.00;100061.91;4818479;29;20054;-66
2023/11/30 06:35:50;;;;;;;15.50;11.48;;;;;;;1.11;100.00;100051.69;4813570;29;20052;-66
2023/11/30 06:38:38;;;;;;;15.77;11.48;;;;;;;1.03;100.00;100060.03;4841060;29;20080;-66
2023/11/30 06:41:26;;;;;;;16.23;11.50;;;;;;;1.00;100.00;100060.47;4840989;29;20141;-65
2023/11/30 06:44:14;;;;;;;16.50;11.65;;;;;;;1.00;100.00;100055.94;4819686;29;20054;-66
2023/11/30 06:47:02;;;;;;;17.73;11.05;;;;;;;1.01;100.00;100056.75;4839655;29;20507;-66
2023/11/30 06:49:50;;;;;;;14.43;11.35;;;;;;;0.98;100.00;100062.56;4840436;29;20057;-66
2023/11/30 06:52:38;;;;;;;14.68;11.35;;;;;;;0.93;100.00;100060.53;4839026;29;20054;-66
2023/11/30 06:55:26;;;;;;;15.48;11.43;;;;;;;0.90;100.00;100054.81;4822196;29;20099;-66
2023/11/30 06:58:14;;;;;;;14.98;10.68;;;;;;;0.90;100.00;100061.00;4822485;29;20141;-65
2023/11/30 07:01:05;;;;;;;15.63;10.88;;;;;;;0.91;100.00;100057.25;4834813;29;20057;-66
2023/11/30 07:03:54;;;;;;;15.68;11.82;;;;;;;0.90;100.00;100061.00;4837633;29;20062;-65
2023/11/30 07:06:43;;;;;;;15.57;10.80;;;;;;;0.91;100.00;100067.19;4840388;29;20058;-66
2023/11/30 07:09:31;;;;;;;18.85;12.57;;;;;;;0.82;100.00;100070.16;4840479;29;20053;-67
2023/11/30 07:12:19;;;;;;;20.35;13.25;;;;;;;0.75;100.00;100074.78;4841009;29;20050;-67
2023/11/30 07:15:07;;;;;;;19.90;12.38;;;;;;;0.68;100.00;100070.53;4827554;29;20054;-63
2023/11/30 07:17:56;;;;;;;17.35;11.82;;;;;;;0.62;100.00;100064.16;4824778;29;20050;-65
2023/11/30 07:20:44;;;;;;;17.35;12.30;;;;;;;0.70;100.00;100063.06;4826335;29;20050;-65
2023/11/30 07:23:32;;;;;;;16.08;12.13;;;;;;;0.74;100.00;100067.75;4821104;29;20418;-64
2023/11/30 07:26:20;;;;;;;16.90;11.68;;;;;;;0.77;100.00;100072.69;4839616;29;20559;-65
2023/11/30 07:29:09;;;;;;;17.08;11.55;;;;;;;0.80;100.00;100055.34;4842283;29;20054;-64
2023/11/30 07:31:58;;;;;;;15.48;11.57;;;;;;;0.84;100.00;100068.09;4844632;29;20050;-64
2023/11/30 07:34:46;;;;;;;15.13;11.48;;;;;;;0.93;100.00;100068.59;4826417;29;20130;-66
2023/11/30 07:37:34;;;;;;;15.60;11.27;;;;;;;1.04;100.00;100065.19;4839707;29;20098;-65
2023/11/30 07:40:22;;;;;;;15.60;11.38;;;;;;;1.15;100.00;100066.28;4842800;29;20046;-64
2023/11/30 07:43:11;;;;;;;16.83;10.73;;;;;;;1.22;100.00;100069.69;4835618;29;20069;-63
2023/11/30 07:45:59;;;;;;;14.48;11.07;;;;;;;1.21;100.00;100065.38;4826873;29;20053;-64
2023/11/30 07:48:47;;;;;;;14.40;10.80;;;;;;;1.20;100.00;100066.44;4825534;29;20069;-65
2023/11/30 07:51:35;;;;;;;18.77;13.00;;;;;;;1.16;100.00;100065.25;4830060;29;20427;-67
2023/11/30 07:54:24;;;;;;;16.80;12.88;;;;;;;1.09;100.00;100069.06;4841547;29;20056;-63
2023/11/30 07:57:12;;;;;;;18.92;12.20;;;;;;;0.98;100.00;100070.59;4817014;29;20092;-65
2023/11/30 08:00:02;;;;;;;21.98;12.30;;;;;;;0.95;100.00;100068.38;4824465;29;20055;-64
2023/11/30 08:02:52;;;;;;;17.55;12.18;;;;;;;0.96;100.00;100075.38;4825589;29;20046;-65
2023/11/30 08:05:40;;;;;;;16.15;11.82;;;;;;;1.03;100.00;100076.97;4824914;29;20066;-67
2023/11/30 08:08:28;;;;;;;15.57;11.10;;;;;;;1.14;100.00;100075.38;4824023;29;20136;-66
2023/11/30 08:11:16;;;;;;;17.48;13.15;;;;;;;1.15;100.00;100074.31;4811907;29;20141;-65
2023/11/30 08:14:04;;;;;;;15.10;11.52;;;;;;;1.07;100.00;100074.63;4826103;29;20050;-66
2023/11/30 08:16:52;;;;;;;14.68;10.60;;;;;;;1.07;100.00;100074.63;4825888;29;20050;-66
2023/11/30 08:19:40;;;;;;;15.30;10.63;;;;;;;1.15;100.00;100078.88;4825445;29;20058;-65
2023/11/30 08:22:28;;;;;;;15.80;11.05;;;;;;;1.21;100.00;100075.31;4825557;29;20057;-66
2023/11/30 08:25:16;;;;;;;14.75;11.13;;;;;;;1.08;100.00;100072.78;4826393;29;20042;-65
2023/11/30 08:28:04;;;;;;;14.63;11.15;;;;;;;1.01;100.00;100072.84;4832578;29;20460;-64
2023/11/30 08:30:52;;;;;;;15.40;11.18;;;;;;;0.91;100.00;100083.28;4843295;29;20527;-64
2023/11/30 08:33:40;;;;;;;15.57;11.23;;;;;;;0.80;100.00;100076.78;4833399;29;20126;-64
2023/11/30 08:36:28;;;;;;;16.10;10.68;;;;;;;0.81;100.00;100073.06;4816354;29;20059;-65
2023/11/30 08:39:23;;;;;;;14.63;11.15;;;;;;;0.87;100.00;100068.66;4835658;29;20046;-64
2023/11/30 08:42:11;;;;;;;14.50;10.90;;;;;;;0.88;100.00;100075.69;4826433;29;20058;-64
2023/11/30 08:45:00;;;;;;;17.00;11.63;;;;;;;0.83;100.00;100079.84;4830423;29;20128;-64
2023/11/30 08:47:51;;;;;;;22.67;12.60;;;;;;;0.79;100.00;100081.31;4835826;29;20057;-64
2023/11/30 08:50:40;;;;;;;15.68;11.98;;;;;;;0.75;100.00;100080.13;4819281;29;20062;-65
2023/11/30 08:53:28;;;;;;;17.30;12.80;;;;;;;0.78;100.00;100079.69;4815159;29;20108;-66
2023/11/30 08:56:16;;;;;;;17.88;13.10;;;;;;;0.74;100.00;100072.31;4812053;29;20135;-67
2023/11/30 08:59:04;;;;;;;18.98;12.95;;;;;;;0.70;100.00;100074.63;4811008;29;20415;-65
2023/11/30 09:01:52;;;;;;;18.23;12.32;;;;;;;0.80;100.00;100066.88;4842020;29;20521;-64
2023/11/30 09:04:41;;;;;;;21.10;13.20;;;;;;;0.92;100.00;100079.56;4824771;29;20149;-65
2023/11/30 09:07:30;;;;;;;17.23;13.43;;;;;;;0.93;100.00;100086.56;4819931;29;20074;-66
2023/11/30 09:10:19;;;;;;;19.38;13.38;;;;;;;0.93;100.00;100078.50;4816881;29;20048;-63
2023/11/30 09:13:07;;;;;;;18.80;13.20;;;;;;;0.92;100.00;100079.56;4819356;29;20103;-65
2023/11/30 09:15:56;;;;;;;19.75;13.20;;;;;;;0.82;100.00;100088.94;4833557;29;20050;-64
2023/11/30 09:18:44;;;;;;;20.52;13.48;;;;;;;0.81;100.00;100084.59;4839576;29;20074;-65
2023/11/30 09:21:32;;;;;;;21.90;14.07;;;;;;;0.81;100.00;100084.59;4842593;29;20054;-65
2023/11/30 09:24:21;;;;;;;19.73;13.55;;;;;;;0.80;100.00;100080.28;4845478;29;20054;-64
2023/11/30 09:27:10;;;;;;;20.65;14.32;;;;;;;0.75;100.00;100082.81;4849579;29;20062;-64
2023/11/30 09:29:58;;;;;;;17.83;13.85;;;;;;;0.81;100.00;100078.41;4848386;29;20077;-66
2023/11/30 09:32:46;;;;;;;20.45;14.30;;;;;;;0.89;100.00;100074.63;4820696;29;20633;-66
2023/11/30 09:35:34;;;;;;;20.27;13.75;;;;;;;0.97;100.00;100071.66;4835466;29;20424;-65
2023/11/30 09:38:22;;;;;;;19.60;14.73;;;;;;;0.97;100.00;100077.03;4843348;29;20045;-64
2023/11/30 09:41:13;;;;;;;21.52;14.85;;;;;;;0.96;100.00;100073.53;4842188;29;20515;-64
2023/11/30 09:44:03;;;;;;;22.58;15.85;;;;;;;0.88;100.00;100079.16;4832886;29;20078;-66
2023/11/30 09:46:51;;;;;;;19.88;14.68;;;;;;;0.91;100.00;100069.88;4830489;29;20066;-66
2023/11/30 09:49:39;;;;;;;20.92;15.52;;;;;;;0.97;100.00;100072.47;4833920;29;20046;-64
2023/11/30 09:52:28;;;;;;;22.33;15.57;;;;;;;1.03;100.00;100070.75;4823280;29;20125;-66
2023/11/30 09:55:16;;;;;;;23.23;16.10;;;;;;;1.11;100.00;100061.59;4825149;29;20480;-65
2023/11/30 09:58:04;;;;;;;21.48;16.15;;;;;;;1.11;100.00;100066.94;4824497;29;20412;-67
2023/11/30 10:00:52;;;;;;;23.00;17.25;;;;;;;1.13;100.00;100068.38;4824746;29;20160;-65
2023/11/30 10:03:41;;;;;;;22.90;16.83;;;;;;;1.11;100.00;100073.16;4800718;29;20055;-65
2023/11/30 10:06:29;;;;;;;24.98;18.15;;;;;;;1.14;100.00;100072.69;4823367;29;20057;-67
2023/11/30 10:09:17;;;;;;;24.73;17.90;;;;;;;1.13;100.00;100075.59;4832005;29;20062;-65
2023/11/30 10:12:05;;;;;;;27.73;18.73;;;;;;;1.15;100.00;100065.47;4824515;29;20103;-67
2023/11/30 10:15:00;;;;;;;26.65;19.70;;;;;;;1.23;100.00;100070.53;4831538;29;20418;-66
2023/11/30 10:17:49;;;;;;;28.40;20.15;;;;;;;1.16;100.00;100070.63;4825680;29;20050;-65
2023/11/30 10:20:37;;;;;;;27.13;19.35;;;;;;;1.11;100.00;100069.63;4811429;29;20051;-66
2023/11/30 10:23:25;;;;;;;26.63;18.35;;;;;;;1.04;100.00;100070.53;4811699;29;20047;-66
2023/11/30 10:26:16;;;;;;;23.58;15.52;;;;;;;1.14;100.00;100070.00;4824167;29;20054;-66
2023/11/30 10:29:06;;;;;;;24.50;18.13;;;;;;;1.27;100.00;100061.81;4824981;29;20067;-66
2023/11/30 10:31:56;;;;;;;24.30;18.10;;;;;;;1.42;100.00;100057.88;4823403;29;20054;-65
2023/11/30 10:34:48;;;;;;;23.52;17.98;;;;;;;1.52;100.00;100066.25;4811844;29;20091;-66
2023/11/30 10:37:46;;;;;;;25.10;19.25;;;;;;;1.55;100.00;100075.72;4824391;29;20058;-64
2023/11/30 10:40:35;;;;;;;28.90;18.27;;;;;;;1.62;100.00;100066.50;4835620;29;20500;-66
2023/11/30 10:43:24;;;;;;;28.17;19.33;;;;;;;1.73;100.00;100069.47;4809965;29;20054;-66
2023/11/30 10:46:13;;;;;;;28.10;20.10;;;;;;;1.77;100.00;100055.34;4798970;29;20078;-66
2023/11/30 10:49:03;;;;;;;33.17;21.08;;;;;;;1.78;100.00;100054.31;4823511;29;20416;-67
2023/11/30 10:51:52;;;;;;;27.95;20.88;;;;;;;1.78;100.00;100061.53;4814426;29;20046;-66
2023/11/30 10:55:12;;;;;;;28.73;22.25;;;;;;;1.83;100.00;100059.00;4840618;29;20050;-65
2023/11/30 10:58:05;;;;;;;34.05;24.15;;;;;;;1.85;100.00;100057.72;4841644;29;20042;-66
2023/11/30 11:00:59;;;;;;;31.80;23.70;;;;;;;1.92;100.00;100062.97;4839891;29;20053;-69
2023/11/30 11:03:56;;;;;;;30.13;23.27;;;;;;;1.94;100.00;100058.19;4832573;29;20053;-66
2023/11/30 11:06:45;;;;;;;;;;;;;;;1.94;100.00;100058.19;4838534;29;20295;-67
2023/11/30 11:09:44;;;;;;;36.17;25.85;;;;;;;1.94;100.00;100063.56;4835544;29;20024;-68
2023/11/30 11:12:37;;;;;;;35.80;25.85;;;;;;;1.87;100.00;100055.59;4822191;29;20396;-65
2023/11/30 11:15:28;;;;;;;33.58;23.70;;;;;;;1.92;100.00;100057.59;4826039;29;20054;-66
2023/11/30 11:18:17;;;;;;;34.03;24.60;;;;;;;1.99;100.00;100062.88;4815842;29;20050;-66
2023/11/30 11:21:06;;;;;;;36.15;25.02;;;;;;;1.96;100.00;100074.91;4837529;29;20054;-68
2023/11/30 11:24:03;;;;;;;38.00;26.40;;;;;;;1.88;100.00;100067.19;4171390;29;10001179;-67
2023/11/30 11:26:58;;;;;;;37.10;25.98;;;;;;;1.85;100.00;100065.78;4828273;29;20057;-67
2023/11/30 11:29:46;;;;;;;33.58;24.98;;;;;;;1.86;100.00;100063.91;4840354;29;20096;-65
2023/11/30 11:32:35;;;;;;;40.35;27.73;;;;;;;1.87;100.00;100060.16;4831581;29;20081;-66
2023/11/30 11:35:23;;;;;;;35.55;26.55;;;;;;;1.82;100.00;100065.41;4822047;29;20061;-65
2023/11/30 11:38:11;;;;;;;36.83;28.00;;;;;;;1.74;100.00;100069.25;4808636;29;20053;-66
2023/11/30 11:40:59;;;;;;;35.65;26.33;;;;;;;1.62;100.00;100074.56;4823470;29;20149;-66
2023/11/30 11:43:48;;;;;;;36.25;26.30;;;;;;;1.60;100.00;100071.28;4814013;29;20183;-66
2023/11/30 11:46:38;;;;;;;35.33;25.38;;;;;;;1.69;100.00;100059.19;4829946;29;20073;-65
2023/11/30 11:49:26;;;;;;;37.42;27.00;;;;;;;1.80;100.00;100062.13;4826520;29;20077;-66
2023/11/30 11:52:25;;;;;;;35.33;25.13;;;;;;;1.83;100.00;100059.81;4827600;29;20060;-66
2023/11/30 11:55:13;;;;;;;33.47;26.10;;;;;;;1.85;100.00;100056.88;4836957;29;20050;-66
2023/11/30 11:58:01;;;;;;;33.17;24.20;;;;;;;1.85;100.00;100056.88;4831633;29;20089;-66
2023/11/30 12:00:56;;;;;;;37.25;26.60;;;;;;;1.90;100.00;100048.94;4824157;29;20418;-67
2023/11/30 12:03:50;;;;;;;36.25;27.60;;;;;;;1.96;100.00;100042.66;4835245;29;20524;-66
2023/11/30 12:06:38;;;;;;;37.13;28.60;;;;;;;1.95;100.00;100035.69;4821490;29;20141;-65
2023/11/30 12:09:26;;;;;;;39.13;30.05;;;;;;;1.95;100.00;100035.69;4821425;29;20050;-66
2023/11/30 12:12:14;;;;;;;41.08;31.05;;;;;;;1.91;100.00;100045.22;4821716;29;20062;-66
2023/11/30 12:15:03;;;;;;;42.30;31.50;;;;;;;1.87;100.00;100039.50;4823730;29;20168;-66
2023/11/30 12:17:52;;;;;;;40.13;31.23;;;;;;;1.84;100.00;100036.47;4821440;29;20632;-65
2023/11/30 12:20:40;;;;;;;42.75;31.73;;;;;;;1.86;100.00;100032.50;4821326;29;20077;-66
2023/11/30 12:23:28;;;;;;;42.47;32.92;;;;;;;1.92;100.00;100026.22;4821046;29;20054;-67
2023/11/30 12:26:16;;;;;;;40.67;31.35;;;;;;;1.96;100.00;100034.63;4822811;29;20123;-66
2023/11/30 12:29:04;;;;;;;38.55;30.70;;;;;;;2.04;100.00;100039.63;4836433;29;20576;-67
2023/11/30 12:31:52;;;;;;;40.08;31.85;;;;;;;2.12;100.00;100039.31;4834790;29;20057;-65
2023/11/30 12:34:43;;;;;;;39.35;30.52;;;;;;;2.16;100.00;100031.59;4834558;29;20050;-67
2023/11/30 12:37:32;;;;;;;40.08;30.85;;;;;;;2.21;100.00;100033.59;4823822;29;20574;-66
2023/11/30 12:40:21;;;;;;;38.95;30.63;;;;;;;2.19;100.00;100031.16;4824206;29;20108;-65
2023/11/30 12:43:09;;;;;;;41.92;31.52;;;;;;;2.11;100.00;100032.28;4824507;29;20089;-68
2023/11/30 12:45:57;;;;;;;44.75;32.90;;;;;;;2.05;100.00;100035.09;4834153;29;20050;-66
2023/11/30 12:48:45;;;;;;;43.90;32.40;;;;;;;2.02;100.00;100039.06;4835492;29;20124;-66